This is the latest recevied weather packets stored in our database for station/object HS5XHC-1. If no packets are shown the sender has not sent any weather packets the latest 10 day(s).
| Time | Temp. | Humidity | Pressure | Rain* | Wind** | Luminosity | Snow |
|---|---|---|---|---|---|---|---|
| 1777150534 | 27.78° C | 54% | 967 hPa | - | - | 0 W/m² | - |
| 1777149910 | 27.78° C | 54% | 968 hPa | - | - | 0 W/m² | - |
| 1777149286 | 27.78° C | 55% | 968 hPa | - | - | 0 W/m² | - |
| 1777148663 | 27.78° C | 55% | 968 hPa | - | - | 0 W/m² | - |
| 1777148039 | 27.78° C | 55% | 968 hPa | - | - | 0 W/m² | - |
| 1777147415 | 26.67° C | 58% | 968 hPa | - | - | 0 W/m² | - |
| 1777147151 | 26.11° C | 60% | 968 hPa | - | - | 0 W/m² | - |
| 1777146527 | 27.78° C | 55% | 967 hPa | - | - | 0 W/m² | - |
| 1777145902 | 27.78° C | 53% | 967 hPa | - | - | 0 W/m² | - |
| 1777145278 | 28.89° C | 51% | 967 hPa | - | - | 0 W/m² | - |
| 1777144654 | 28.89° C | 52% | 967 hPa | - | - | 0 W/m² | - |
| 1777144030 | 28.33° C | 52% | 968 hPa | - | - | 0 W/m² | - |
| 1777143406 | 28.89° C | 52% | 968 hPa | - | - | 0 W/m² | - |
| 1777142782 | 28.89° C | 51% | 968 hPa | - | - | 0 W/m² | - |
| 1777142158 | 28.89° C | 51% | 968 hPa | - | - | 0 W/m² | - |
| 1777141534 | 28.33° C | 53% | 968 hPa | - | - | 0 W/m² | - |
| 1777140910 | 28.89° C | 52% | 968 hPa | - | - | 0 W/m² | - |
| 1777140286 | 28.89° C | 52% | 968 hPa | - | - | 0 W/m² | - |
| 1777139662 | 28.33° C | 53% | 968 hPa | - | - | 0 W/m² | - |
| 1777139038 | 28.33° C | 53% | 969 hPa | - | - | 0 W/m² | - |
| 1777138414 | 28.89° C | 52% | 969 hPa | - | - | 0 W/m² | - |
| 1777137789 | 28.89° C | 52% | 969 hPa | - | - | 0 W/m² | - |
| 1777137166 | 28.89° C | 52% | 969 hPa | - | - | 0 W/m² | - |
| 1777136541 | 28.89° C | 52% | 969 hPa | - | - | 0 W/m² | - |
| 1777135918 | 28.89° C | 53% | 969 hPa | - | - | 0 W/m² | - |
* Rain since midnight (hover to see other rain measurements)
** Current wind speed in m/s (hover to see current wind gust speed)